CES1850 ZGHA-ZPPP
Flight info
| Callsign | CES1850 |
|---|---|
| Flight time | N/A |
| Altitude | 36100 |
| Route | OLT9W OLTUS W226 IPMUG W611 BIVAV W138 DYG/K0837S1160 W140 HUY A581 QNX W136 XISLI XIS2B |
| Aircraft | B738/M-SDE2E3FGHIRWXY/LB1 |
Departure
| Time | 2026-04-26 03:11 |
|---|---|
| Airport | Changsha Huanghua International Airport (ZGHA) |
Arrival
| Time | N/A |
|---|---|
| Airport | Kunming Changshui International Airport (ZPPP) |
| Time | Latitude | Longitude | Altitude | Speed | Heading |
|---|---|---|---|---|---|
| 2026-04-26 02:25 | 28.19204 | 113.21532 | 221 ft | 0 kts | 343° |
| 2026-04-26 02:56 | 28.19202 | 113.21532 | 221 ft | 1 kts | 343° |
| 2026-04-26 02:56 | 28.19188 | 113.21537 | 220 ft | 2 kts | 343° |
| 2026-04-26 02:56 | 28.19174 | 113.21542 | 221 ft | 2 kts | 343° |
| 2026-04-26 02:57 | 28.19161 | 113.21546 | 221 ft | 1 kts | 10° |
| 2026-04-26 02:57 | 28.19150 | 113.21537 | 221 ft | 1 kts | 70° |
| 2026-04-26 02:57 | 28.19149 | 113.21530 | 221 ft | 1 kts | 96° |
| 2026-04-26 02:57 | 28.19149 | 113.21525 | 221 ft | 0 kts | 88° |
| 2026-04-26 03:04 | 28.19150 | 113.21544 | 221 ft | 6 kts | 87° |
| 2026-04-26 03:04 | 28.19153 | 113.21616 | 220 ft | 9 kts | 88° |
| 2026-04-26 03:04 | 28.19156 | 113.21687 | 220 ft | 8 kts | 85° |
| 2026-04-26 03:05 | 28.19165 | 113.21746 | 221 ft | 7 kts | 62° |
| 2026-04-26 03:05 | 28.19223 | 113.21765 | 220 ft | 11 kts | 356° |
| 2026-04-26 03:05 | 28.19316 | 113.21762 | 220 ft | 13 kts | 357° |
| 2026-04-26 03:05 | 28.19405 | 113.21757 | 220 ft | 12 kts | 357° |
| 2026-04-26 03:06 | 28.19502 | 113.21751 | 220 ft | 15 kts | 356° |
| 2026-04-26 03:06 | 28.19605 | 113.21745 | 220 ft | 14 kts | 357° |
| 2026-04-26 03:06 | 28.19703 | 113.21739 | 220 ft | 14 kts | 356° |
| 2026-04-26 03:06 | 28.19809 | 113.21733 | 220 ft | 14 kts | 357° |
| 2026-04-26 03:07 | 28.19908 | 113.21727 | 220 ft | 13 kts | 355° |
| 2026-04-26 03:07 | 28.19973 | 113.21722 | 220 ft | 5 kts | 356° |
| 2026-04-26 03:07 | 28.20012 | 113.21720 | 220 ft | 7 kts | 357° |
| 2026-04-26 03:07 | 28.20075 | 113.21716 | 220 ft | 11 kts | 356° |
| 2026-04-26 03:08 | 28.20168 | 113.21710 | 220 ft | 14 kts | 356° |
| 2026-04-26 03:08 | 28.20264 | 113.21705 | 220 ft | 13 kts | 357° |
| 2026-04-26 03:08 | 28.20379 | 113.21698 | 220 ft | 19 kts | 356° |
| 2026-04-26 03:08 | 28.20510 | 113.21688 | 220 ft | 16 kts | 358° |
| 2026-04-26 03:09 | 28.20591 | 113.21697 | 220 ft | 9 kts | 39° |
| 2026-04-26 03:09 | 28.20603 | 113.21755 | 220 ft | 0 kts | 87° |
| 2026-04-26 03:10 | 28.20604 | 113.21775 | 220 ft | 5 kts | 86° |
| 2026-04-26 03:10 | 28.20604 | 113.21832 | 220 ft | 9 kts | 101° |
| 2026-04-26 03:10 | 28.20556 | 113.21877 | 220 ft | 9 kts | 176° |
| 2026-04-26 03:10 | 28.20480 | 113.21882 | 220 ft | 14 kts | 176° |
| 2026-04-26 03:11 | 28.20138 | 113.21903 | 221 ft | 85 kts | 177° |
| 2026-04-26 03:11 | 28.19306 | 113.21952 | 221 ft | 149 kts | 178° |
| 2026-04-26 03:11 | 28.18169 | 113.22021 | 616 ft | 169 kts | 178° |
| 2026-04-26 03:11 | 28.17039 | 113.22078 | 1421 ft | 169 kts | 177° |
| 2026-04-26 03:12 | 28.15814 | 113.22159 | 2003 ft | 180 kts | 176° |
| 2026-04-26 03:12 | 28.14526 | 113.22245 | 2458 ft | 193 kts | 176° |
| 2026-04-26 03:12 | 28.13114 | 113.22332 | 2875 ft | 210 kts | 177° |
| 2026-04-26 03:12 | 28.11646 | 113.22420 | 3486 ft | 218 kts | 177° |
| 2026-04-26 03:13 | 28.10136 | 113.22514 | 4257 ft | 218 kts | 177° |
| 2026-04-26 03:13 | 28.08593 | 113.22611 | 4924 ft | 224 kts | 178° |
| 2026-04-26 03:13 | 28.07043 | 113.22707 | 5629 ft | 226 kts | 178° |
| 2026-04-26 03:13 | 28.05467 | 113.22805 | 6274 ft | 231 kts | 178° |
| 2026-04-26 03:14 | 28.03839 | 113.22905 | 6953 ft | 236 kts | 178° |
| 2026-04-26 03:14 | 28.02204 | 113.23029 | 7585 ft | 242 kts | 174° |
| 2026-04-26 03:14 | 28.00573 | 113.23546 | 8218 ft | 250 kts | 150° |
| 2026-04-26 03:14 | 27.99288 | 113.24897 | 8872 ft | 254 kts | 121° |
| 2026-04-26 03:15 | 27.98614 | 113.26720 | 9563 ft | 255 kts | 101° |
| 2026-04-26 03:15 | 27.98399 | 113.28689 | 10235 ft | 257 kts | 87° |
| 2026-04-26 03:15 | 27.98737 | 113.30631 | 10918 ft | 255 kts | 61° |
| 2026-04-26 03:15 | 27.99781 | 113.32230 | 11597 ft | 254 kts | 39° |
| 2026-04-26 03:16 | 28.01204 | 113.33418 | 12319 ft | 254 kts | 25° |
| 2026-04-26 03:16 | 28.02846 | 113.34020 | 12959 ft | 252 kts | 1° |
| 2026-04-26 03:16 | 28.04587 | 113.33992 | 13685 ft | 252 kts | 353° |
| 2026-04-26 03:16 | 28.06333 | 113.33843 | 14423 ft | 253 kts | 350° |
| 2026-04-26 03:17 | 28.08059 | 113.33392 | 15107 ft | 253 kts | 335° |
| 2026-04-26 03:17 | 28.09532 | 113.32394 | 15817 ft | 251 kts | 316° |
| 2026-04-26 03:17 | 28.10673 | 113.30854 | 16350 ft | 259 kts | 300° |
| 2026-04-26 03:17 | 28.11405 | 113.28967 | 16787 ft | 271 kts | 284° |
| 2026-04-26 03:18 | 28.11673 | 113.26814 | 17148 ft | 287 kts | 275° |
| 2026-04-26 03:18 | 28.11782 | 113.24498 | 17574 ft | 300 kts | 274° |
| 2026-04-26 03:18 | 28.11885 | 113.22075 | 17954 ft | 315 kts | 274° |
| 2026-04-26 03:18 | 28.12016 | 113.19572 | 18394 ft | 326 kts | 275° |
| 2026-04-26 03:19 | 28.12167 | 113.17012 | 19129 ft | 328 kts | 275° |
| 2026-04-26 03:19 | 28.12327 | 113.14436 | 19867 ft | 329 kts | 275° |
| 2026-04-26 03:19 | 28.12491 | 113.11835 | 20493 ft | 334 kts | 276° |
| 2026-04-26 03:19 | 28.12655 | 113.09225 | 21236 ft | 334 kts | 276° |
| 2026-04-26 03:20 | 28.12816 | 113.06602 | 21825 ft | 338 kts | 276° |
| 2026-04-26 03:20 | 28.12981 | 113.03929 | 22471 ft | 340 kts | 276° |
| 2026-04-26 03:20 | 28.13145 | 113.01276 | 23096 ft | 342 kts | 276° |
| 2026-04-26 03:20 | 28.13309 | 112.98595 | 23657 ft | 345 kts | 276° |
| 2026-04-26 03:21 | 28.13475 | 112.95866 | 24218 ft | 348 kts | 276° |
| 2026-04-26 03:21 | 28.13638 | 112.93164 | 24780 ft | 350 kts | 276° |
| 2026-04-26 03:21 | 28.13802 | 112.90402 | 25354 ft | 351 kts | 276° |
| 2026-04-26 03:21 | 28.13965 | 112.87661 | 25876 ft | 353 kts | 276° |
| 2026-04-26 03:22 | 28.14128 | 112.84890 | 26356 ft | 356 kts | 276° |
| 2026-04-26 03:22 | 28.14293 | 112.82074 | 26828 ft | 360 kts | 276° |
| 2026-04-26 03:22 | 28.14457 | 112.79240 | 27353 ft | 361 kts | 277° |
| 2026-04-26 03:22 | 28.14618 | 112.76428 | 27809 ft | 363 kts | 277° |
| 2026-04-26 03:23 | 28.14783 | 112.73535 | 28245 ft | 366 kts | 277° |
| 2026-04-26 03:23 | 28.14946 | 112.70676 | 28758 ft | 367 kts | 277° |
| 2026-04-26 03:23 | 28.15112 | 112.67784 | 29152 ft | 370 kts | 277° |
| 2026-04-26 03:23 | 28.15276 | 112.64896 | 29605 ft | 371 kts | 277° |
| 2026-04-26 03:24 | 28.15442 | 112.61973 | 30050 ft | 373 kts | 277° |
| 2026-04-26 03:24 | 28.15608 | 112.59045 | 30469 ft | 374 kts | 277° |
| 2026-04-26 03:24 | 28.15775 | 112.56091 | 30818 ft | 378 kts | 277° |
| 2026-04-26 03:24 | 28.15939 | 112.53152 | 31368 ft | 375 kts | 277° |
| 2026-04-26 03:25 | 28.16105 | 112.50177 | 31695 ft | 379 kts | 277° |
| 2026-04-26 03:25 | 28.16271 | 112.47215 | 32052 ft | 381 kts | 277° |
| 2026-04-26 03:25 | 28.16437 | 112.44234 | 32488 ft | 380 kts | 277° |
| 2026-04-26 03:25 | 28.16604 | 112.41221 | 32788 ft | 383 kts | 277° |
| 2026-04-26 03:26 | 28.16768 | 112.38213 | 33129 ft | 385 kts | 277° |
| 2026-04-26 03:26 | 28.16933 | 112.35196 | 33427 ft | 387 kts | 277° |
| 2026-04-26 03:26 | 28.17100 | 112.32141 | 33894 ft | 387 kts | 276° |
| 2026-04-26 03:26 | 28.17267 | 112.29078 | 34105 ft | 393 kts | 276° |
| 2026-04-26 03:27 | 28.17432 | 112.25990 | 34601 ft | 392 kts | 276° |
| 2026-04-26 03:27 | 28.17594 | 112.22903 | 34932 ft | 394 kts | 276° |
| 2026-04-26 03:27 | 28.17795 | 112.19790 | 35286 ft | 395 kts | 278° |
| 2026-04-26 03:27 | 28.18117 | 112.16685 | 35547 ft | 398 kts | 280° |
| 2026-04-26 03:28 | 28.18507 | 112.13593 | 35985 ft | 396 kts | 281° |
| 2026-04-26 03:28 | 28.18923 | 112.10438 | 36064 ft | 397 kts | 281° |
| 2026-04-26 03:28 | 28.19718 | 112.04298 | 36079 ft | 390 kts | 281° |
| 2026-04-26 03:29 | 28.20737 | 111.98261 | 36080 ft | 391 kts | 288° |
| 2026-04-26 03:29 | 28.22976 | 111.92628 | 36084 ft | 391 kts | 300° |
| 2026-04-26 03:30 | 28.25893 | 111.87415 | 36086 ft | 392 kts | 302° |
| 2026-04-26 03:30 | 28.28613 | 111.82101 | 36080 ft | 391 kts | 289° |
| 2026-04-26 03:31 | 28.29593 | 111.76019 | 36080 ft | 394 kts | 278° |
| 2026-04-26 03:31 | 28.30179 | 111.69820 | 36083 ft | 395 kts | 278° |
| 2026-04-26 03:32 | 28.30860 | 111.63658 | 36086 ft | 395 kts | 280° |
| 2026-04-26 03:32 | 28.31626 | 111.57514 | 36089 ft | 395 kts | 280° |
| 2026-04-26 03:33 | 28.32428 | 111.51339 | 36090 ft | 394 kts | 280° |
| 2026-04-26 03:33 | 28.33230 | 111.45209 | 36094 ft | 394 kts | 280° |
| 2026-04-26 03:34 | 28.34041 | 111.39043 | 36103 ft | 397 kts | 279° |
| 2026-04-26 03:34 | 28.34846 | 111.32875 | 36112 ft | 396 kts | 279° |
| 2026-04-26 03:35 | 28.35652 | 111.26691 | 36118 ft | 398 kts | 279° |
| 2026-04-26 03:35 | 28.36462 | 111.20471 | 36112 ft | 397 kts | 279° |
| 2026-04-26 03:36 | 28.37268 | 111.14233 | 36101 ft | 397 kts | 279° |
| 2026-04-26 03:36 | 28.38064 | 111.08044 | 36092 ft | 398 kts | 279° |
| 2026-04-26 03:37 | 28.38863 | 111.01817 | 36083 ft | 398 kts | 279° |
| 2026-04-26 03:37 | 28.39654 | 110.95626 | 36085 ft | 398 kts | 279° |
| 2026-04-26 03:38 | 28.40448 | 110.89383 | 36085 ft | 399 kts | 279° |
| 2026-04-26 03:38 | 28.41234 | 110.83172 | 36085 ft | 401 kts | 279° |
| 2026-04-26 03:39 | 28.42027 | 110.76910 | 36086 ft | 400 kts | 279° |
| 2026-04-26 03:39 | 28.42814 | 110.70667 | 36084 ft | 400 kts | 278° |
| 2026-04-26 03:40 | 28.43594 | 110.64446 | 36086 ft | 401 kts | 279° |
| 2026-04-26 03:40 | 28.44378 | 110.58170 | 36082 ft | 401 kts | 279° |
| 2026-04-26 03:41 | 28.45158 | 110.51900 | 36084 ft | 402 kts | 279° |
| 2026-04-26 03:41 | 28.45941 | 110.45592 | 36080 ft | 402 kts | 279° |
| 2026-04-26 03:42 | 28.46718 | 110.39308 | 36070 ft | 401 kts | 279° |
| 2026-04-26 03:42 | 28.47494 | 110.33001 | 36062 ft | 402 kts | 278° |
| 2026-04-26 03:43 | 28.48262 | 110.26711 | 36053 ft | 404 kts | 278° |
| 2026-04-26 03:43 | 28.49025 | 110.20441 | 36053 ft | 401 kts | 278° |
| 2026-04-26 03:44 | 28.49795 | 110.14128 | 36064 ft | 404 kts | 278° |
| 2026-04-26 03:44 | 28.50558 | 110.07841 | 36075 ft | 401 kts | 278° |
| 2026-04-26 03:45 | 28.51322 | 110.01540 | 36088 ft | 404 kts | 278° |
| 2026-04-26 03:45 | 28.52082 | 109.95232 | 36095 ft | 406 kts | 278° |
| 2026-04-26 03:46 | 28.52840 | 109.88896 | 36097 ft | 405 kts | 278° |
| 2026-04-26 03:47 | 28.53967 | 109.79417 | 36091 ft | 404 kts | 278° |
| 2026-04-26 03:47 | 28.54720 | 109.73071 | 36088 ft | 406 kts | 278° |
| 2026-04-26 03:48 | 28.55467 | 109.66729 | 36092 ft | 404 kts | 277° |
| 2026-04-26 03:48 | 28.56216 | 109.60352 | 36097 ft | 404 kts | 277° |
| 2026-04-26 03:49 | 28.56956 | 109.54024 | 36099 ft | 405 kts | 277° |
| 2026-04-26 03:49 | 28.57447 | 109.47694 | 36102 ft | 405 kts | 270° |
| 2026-04-26 03:49 | 28.57134 | 109.44503 | 36103 ft | 407 kts | 259° |
| 2026-04-26 03:50 | 28.56312 | 109.41398 | 36104 ft | 411 kts | 251° |
| 2026-04-26 03:50 | 28.53956 | 109.35529 | 36099 ft | 410 kts | 246° |
| 2026-04-26 03:51 | 28.51356 | 109.29693 | 36098 ft | 413 kts | 245° |
| 2026-04-26 03:51 | 28.48753 | 109.23887 | 36094 ft | 412 kts | 245° |
| 2026-04-26 03:52 | 28.46167 | 109.18076 | 36100 ft | 411 kts | 246° |
| 2026-04-26 03:52 | 28.43596 | 109.12281 | 36104 ft | 412 kts | 245° |
| 2026-04-26 03:53 | 28.41017 | 109.06462 | 36107 ft | 412 kts | 245° |
| 2026-04-26 03:53 | 28.38451 | 109.00684 | 36109 ft | 412 kts | 245° |
| 2026-04-26 03:54 | 28.35851 | 108.94848 | 36113 ft | 412 kts | 245° |
| 2026-04-26 03:54 | 28.33274 | 108.89074 | 36122 ft | 414 kts | 245° |
| 2026-04-26 03:55 | 28.30675 | 108.83246 | 36122 ft | 412 kts | 245° |
| 2026-04-26 03:55 | 28.28061 | 108.77393 | 36133 ft | 414 kts | 245° |
| 2026-04-26 03:56 | 28.25449 | 108.71555 | 36489 ft | 419 kts | 245° |
| 2026-04-26 03:56 | 28.24135 | 108.68620 | 36893 ft | 419 kts | 245° |
| 2026-04-26 03:56 | 28.22810 | 108.65656 | 37294 ft | 419 kts | 245° |
| 2026-04-26 03:56 | 28.21485 | 108.62691 | 37740 ft | 418 kts | 246° |
| 2026-04-26 03:57 | 28.20171 | 108.59760 | 38107 ft | 418 kts | 245° |
| 2026-04-26 03:57 | 28.18853 | 108.56825 | 38247 ft | 420 kts | 246° |
| 2026-04-26 03:57 | 28.17532 | 108.53886 | 38743 ft | 417 kts | 246° |
| 2026-04-26 03:57 | 28.16221 | 108.50966 | 39097 ft | 417 kts | 246° |
| 2026-04-26 03:58 | 28.14891 | 108.48006 | 39319 ft | 419 kts | 246° |
| 2026-04-26 03:58 | 28.13567 | 108.45059 | 39553 ft | 420 kts | 246° |
| 2026-04-26 03:58 | 28.12251 | 108.42139 | 39902 ft | 418 kts | 246° |
| 2026-04-26 03:58 | 28.10934 | 108.39220 | 40113 ft | 418 kts | 246° |
| 2026-04-26 03:59 | 28.09605 | 108.36276 | 40108 ft | 417 kts | 246° |
| 2026-04-26 03:59 | 28.08289 | 108.33370 | 39936 ft | 413 kts | 246° |
| 2026-04-26 03:59 | 28.06988 | 108.30500 | 39992 ft | 407 kts | 246° |
| 2026-04-26 04:00 | 28.04397 | 108.24779 | 40094 ft | 412 kts | 246° |
| 2026-04-26 04:00 | 28.01777 | 108.18997 | 40096 ft | 413 kts | 246° |
| 2026-04-26 04:01 | 27.99157 | 108.13223 | 40090 ft | 413 kts | 246° |
| 2026-04-26 04:01 | 27.96544 | 108.07469 | 40092 ft | 413 kts | 246° |
| 2026-04-26 04:02 | 27.93921 | 108.01699 | 40080 ft | 413 kts | 246° |
| 2026-04-26 04:02 | 27.92600 | 107.98794 | 39696 ft | 416 kts | 245° |
| 2026-04-26 04:02 | 27.91275 | 107.95881 | 38931 ft | 419 kts | 245° |
| 2026-04-26 04:02 | 27.89927 | 107.92925 | 38125 ft | 421 kts | 245° |
| 2026-04-26 04:03 | 27.88601 | 107.90023 | 37335 ft | 421 kts | 245° |
| 2026-04-26 04:03 | 27.87253 | 107.87077 | 36579 ft | 422 kts | 245° |
| 2026-04-26 04:03 | 27.85905 | 107.84132 | 36146 ft | 416 kts | 245° |
| 2026-04-26 04:04 | 27.83262 | 107.78360 | 36122 ft | 419 kts | 245° |
| 2026-04-26 04:04 | 27.80586 | 107.72446 | 36131 ft | 422 kts | 245° |
| 2026-04-26 04:05 | 27.77978 | 107.66579 | 36138 ft | 420 kts | 246° |
| 2026-04-26 04:05 | 27.75360 | 107.60689 | 36128 ft | 422 kts | 246° |
| 2026-04-26 04:06 | 27.73565 | 107.56660 | 36128 ft | 422 kts | 245° |
| 2026-04-26 04:06 | 27.70923 | 107.50751 | 36122 ft | 420 kts | 246° |
| 2026-04-26 04:07 | 27.68482 | 107.45304 | 36123 ft | 421 kts | 246° |